Terminal Aerodrome Forecast
Issued by NWS Bismarck, ND

Home | Current Version | Previous Version | Graphics & Text | Print | Product List | Glossary On
Versions: 1 2 3 4 5 6 7 8 9 10 11 12 13 14 15 16 17
000
FTUS43 KBIS 222028 AAA
TAFISN
TAF AMD
KISN 222028Z 2220/2318 10008KT P6SM BKN020 OVC030
     FM230500 08010KT P6SM VCSH BKN025 OVC080
     FM230800 08007KT P6SM VCSH OVC015
     FM231200 09012G20KT P6SM OVC008
     FM231600 09014G23KT P6SM OVC010=

USA.gov is the U.S. government's official web portal to all federal, state and local government web resources and services.